sensor_id;sensor_type;location;lat;lon;timestamp;P1;durP1;ratioP1;P2;durP2;ratioP2
40170;SDS011;37650;52.790;18.268;2023-06-01T00:00:56;10.50;;;4.10;;
40170;SDS011;37650;52.790;18.268;2023-06-01T00:04:19;11.00;;;4.00;;
40170;SDS011;37650;52.790;18.268;2023-06-01T00:07:39;11.10;;;5.20;;
40170;SDS011;37650;52.790;18.268;2023-06-01T00:11:00;11.20;;;4.30;;
40170;SDS011;37650;52.790;18.268;2023-06-01T00:14:20;9.80;;;4.30;;
40170;SDS011;37650;52.790;18.268;2023-06-01T00:17:41;10.30;;;3.80;;
40170;SDS011;37650;52.790;18.268;2023-06-01T00:21:01;8.40;;;3.50;;
40170;SDS011;37650;52.790;18.268;2023-06-01T00:24:22;10.70;;;3.80;;
40170;SDS011;37650;52.790;18.268;2023-06-01T00:27:43;9.20;;;3.90;;
40170;SDS011;37650;52.790;18.268;2023-06-01T00:31:04;8.40;;;3.70;;
40170;SDS011;37650;52.790;18.268;2023-06-01T00:34:25;7.70;;;3.60;;
40170;SDS011;37650;52.790;18.268;2023-06-01T00:37:46;7.50;;;3.30;;
40170;SDS011;37650;52.790;18.268;2023-06-01T00:41:07;9.40;;;4.10;;
40170;SDS011;37650;52.790;18.268;2023-06-01T00:44:28;7.90;;;4.50;;
40170;SDS011;37650;52.790;18.268;2023-06-01T00:47:48;11.60;;;4.30;;
40170;SDS011;37650;52.790;18.268;2023-06-01T00:51:09;11.60;;;3.80;;
40170;SDS011;37650;52.790;18.268;2023-06-01T00:54:31;10.00;;;3.70;;
40170;SDS011;37650;52.790;18.268;2023-06-01T00:57:52;10.40;;;3.40;;
40170;SDS011;37650;52.790;18.268;2023-06-01T01:01:14;7.50;;;3.60;;
40170;SDS011;37650;52.790;18.268;2023-06-01T01:04:42;9.80;;;3.70;;
40170;SDS011;37650;52.790;18.268;2023-06-01T01:11:38;11.40;;;4.10;;
40170;SDS011;37650;52.790;18.268;2023-06-01T01:15:09;8.10;;;3.80;;
40170;SDS011;37650;52.790;18.268;2023-06-01T01:18:36;9.90;;;4.10;;
40170;SDS011;37650;52.790;18.268;2023-06-01T01:26:23;10.60;;;4.10;;
40170;SDS011;37650;52.790;18.268;2023-06-01T01:29:51;10.50;;;4.30;;
40170;SDS011;37650;52.790;18.268;2023-06-01T01:33:16;10.40;;;3.60;;
40170;SDS011;37650;52.790;18.268;2023-06-01T01:36:38;7.80;;;4.30;;
40170;SDS011;37650;52.790;18.268;2023-06-01T01:39:59;11.90;;;4.00;;
40170;SDS011;37650;52.790;18.268;2023-06-01T01:43:20;7.80;;;4.20;;
40170;SDS011;37650;52.790;18.268;2023-06-01T01:50:18;9.10;;;4.80;;
40170;SDS011;37650;52.790;18.268;2023-06-01T01:53:40;9.60;;;4.20;;
40170;SDS011;37650;52.790;18.268;2023-06-01T01:57:07;12.20;;;4.50;;
40170;SDS011;37650;52.790;18.268;2023-06-01T02:00:28;12.30;;;4.40;;
40170;SDS011;37650;52.790;18.268;2023-06-01T02:03:58;8.70;;;4.40;;
40170;SDS011;37650;52.790;18.268;2023-06-01T02:07:19;10.50;;;3.70;;
40170;SDS011;37650;52.790;18.268;2023-06-01T02:10:40;8.30;;;3.80;;
40170;SDS011;37650;52.790;18.268;2023-06-01T02:14:02;7.60;;;4.00;;
40170;SDS011;37650;52.790;18.268;2023-06-01T02:17:23;9.50;;;4.00;;
40170;SDS011;37650;52.790;18.268;2023-06-01T02:20:46;9.60;;;4.40;;
40170;SDS011;37650;52.790;18.268;2023-06-01T02:24:08;8.30;;;3.90;;
40170;SDS011;37650;52.790;18.268;2023-06-01T02:27:28;8.20;;;3.60;;
40170;SDS011;37650;52.790;18.268;2023-06-01T02:30:49;7.80;;;4.10;;
40170;SDS011;37650;52.790;18.268;2023-06-01T02:34:10;7.60;;;4.10;;
40170;SDS011;37650;52.790;18.268;2023-06-01T02:37:30;7.80;;;3.60;;
40170;SDS011;37650;52.790;18.268;2023-06-01T02:40:51;6.30;;;3.80;;
40170;SDS011;37650;52.790;18.268;2023-06-01T02:44:12;7.90;;;4.10;;
40170;SDS011;37650;52.790;18.268;2023-06-01T02:47:33;7.50;;;3.40;;
40170;SDS011;37650;52.790;18.268;2023-06-01T02:50:53;6.10;;;3.70;;
40170;SDS011;37650;52.790;18.268;2023-06-01T02:54:17;7.80;;;4.10;;
40170;SDS011;37650;52.790;18.268;2023-06-01T02:57:37;6.20;;;3.30;;
40170;SDS011;37650;52.790;18.268;2023-06-01T03:00:59;8.40;;;3.90;;
40170;SDS011;37650;52.790;18.268;2023-06-01T03:04:20;7.10;;;4.10;;
40170;SDS011;37650;52.790;18.268;2023-06-01T03:07:41;6.90;;;3.40;;
40170;SDS011;37650;52.790;18.268;2023-06-01T03:11:12;8.30;;;3.60;;
40170;SDS011;37650;52.790;18.268;2023-06-01T03:14:38;7.90;;;3.40;;
40170;SDS011;37650;52.790;18.268;2023-06-01T03:18:07;7.70;;;3.70;;
40170;SDS011;37650;52.790;18.268;2023-06-01T03:21:30;6.60;;;4.10;;
40170;SDS011;37650;52.790;18.268;2023-06-01T03:24:51;11.00;;;4.20;;
40170;SDS011;37650;52.790;18.268;2023-06-01T03:28:18;9.00;;;3.70;;
40170;SDS011;37650;52.790;18.268;2023-06-01T03:31:39;6.10;;;3.70;;
40170;SDS011;37650;52.790;18.268;2023-06-01T03:34:59;8.90;;;3.40;;
40170;SDS011;37650;52.790;18.268;2023-06-01T03:38:19;7.40;;;3.80;;
40170;SDS011;37650;52.790;18.268;2023-06-01T03:41:39;6.90;;;3.80;;
40170;SDS011;37650;52.790;18.268;2023-06-01T03:45:00;11.10;;;4.80;;
40170;SDS011;37650;52.790;18.268;2023-06-01T03:48:20;7.60;;;4.20;;
40170;SDS011;37650;52.790;18.268;2023-06-01T03:51:41;10.80;;;4.90;;
40170;SDS011;37650;52.790;18.268;2023-06-01T03:55:02;11.80;;;4.70;;
40170;SDS011;37650;52.790;18.268;2023-06-01T03:58:53;8.50;;;4.10;;
40170;SDS011;37650;52.790;18.268;2023-06-01T04:02:14;10.00;;;4.50;;
40170;SDS011;37650;52.790;18.268;2023-06-01T04:05:35;11.70;;;4.20;;
40170;SDS011;37650;52.790;18.268;2023-06-01T04:08:56;10.10;;;4.50;;
40170;SDS011;37650;52.790;18.268;2023-06-01T04:12:20;10.60;;;5.20;;
40170;SDS011;37650;52.790;18.268;2023-06-01T04:15:45;12.80;;;5.40;;
40170;SDS011;37650;52.790;18.268;2023-06-01T04:22:27;12.00;;;6.30;;
40170;SDS011;37650;52.790;18.268;2023-06-01T04:25:51;13.50;;;5.50;;
40170;SDS011;37650;52.790;18.268;2023-06-01T04:29:13;10.60;;;5.20;;
40170;SDS011;37650;52.790;18.268;2023-06-01T04:32:34;9.20;;;4.90;;
40170;SDS011;37650;52.790;18.268;2023-06-01T04:35:58;10.80;;;5.40;;
40170;SDS011;37650;52.790;18.268;2023-06-01T04:39:21;7.80;;;4.40;;
40170;SDS011;37650;52.790;18.268;2023-06-01T04:42:42;8.40;;;4.30;;
40170;SDS011;37650;52.790;18.268;2023-06-01T04:46:20;11.90;;;4.70;;
40170;SDS011;37650;52.790;18.268;2023-06-01T04:49:43;10.30;;;4.70;;
40170;SDS011;37650;52.790;18.268;2023-06-01T04:53:25;10.30;;;4.70;;
40170;SDS011;37650;52.790;18.268;2023-06-01T04:56:53;10.00;;;4.60;;
40170;SDS011;37650;52.790;18.268;2023-06-01T05:00:18;9.20;;;4.30;;
40170;SDS011;37650;52.790;18.268;2023-06-01T05:03:50;8.90;;;3.90;;
40170;SDS011;37650;52.790;18.268;2023-06-01T05:10:33;9.00;;;4.80;;
40170;SDS011;37650;52.790;18.268;2023-06-01T05:13:54;12.40;;;4.10;;
40170;SDS011;37650;52.790;18.268;2023-06-01T05:17:22;12.60;;;4.70;;
40170;SDS011;37650;52.790;18.268;2023-06-01T05:20:43;12.50;;;4.30;;
40170;SDS011;37650;52.790;18.268;2023-06-01T05:24:08;7.80;;;4.00;;
40170;SDS011;37650;52.790;18.268;2023-06-01T05:27:29;10.50;;;4.00;;
40170;SDS011;37650;52.790;18.268;2023-06-01T05:30:49;11.40;;;3.90;;
40170;SDS011;37650;52.790;18.268;2023-06-01T05:34:11;9.00;;;4.00;;
40170;SDS011;37650;52.790;18.268;2023-06-01T05:37:33;14.40;;;4.70;;
40170;SDS011;37650;52.790;18.268;2023-06-01T05:41:03;10.40;;;3.80;;
40170;SDS011;37650;52.790;18.268;2023-06-01T05:44:24;9.30;;;4.10;;
40170;SDS011;37650;52.790;18.268;2023-06-01T05:47:45;11.80;;;4.30;;
40170;SDS011;37650;52.790;18.268;2023-06-01T05:51:06;15.60;;;4.00;;
40170;SDS011;37650;52.790;18.268;2023-06-01T05:54:26;13.60;;;4.10;;
40170;SDS011;37650;52.790;18.268;2023-06-01T05:57:47;11.10;;;4.30;;
40170;SDS011;37650;52.790;18.268;2023-06-01T06:01:08;11.40;;;3.80;;
40170;SDS011;37650;52.790;18.268;2023-06-01T06:04:29;9.40;;;4.40;;
40170;SDS011;37650;52.790;18.268;2023-06-01T06:07:50;9.60;;;3.40;;
40170;SDS011;37650;52.790;18.268;2023-06-01T06:11:10;6.70;;;3.80;;
40170;SDS011;37650;52.790;18.268;2023-06-01T06:14:31;9.70;;;3.80;;
40170;SDS011;37650;52.790;18.268;2023-06-01T06:17:55;10.40;;;3.50;;
40170;SDS011;37650;52.790;18.268;2023-06-01T06:21:23;13.30;;;4.30;;
40170;SDS011;37650;52.790;18.268;2023-06-01T06:24:43;10.10;;;3.90;;
40170;SDS011;37650;52.790;18.268;2023-06-01T06:28:07;13.30;;;4.70;;
40170;SDS011;37650;52.790;18.268;2023-06-01T06:31:28;15.10;;;4.60;;
40170;SDS011;37650;52.790;18.268;2023-06-01T06:34:48;15.20;;;4.80;;
40170;SDS011;37650;52.790;18.268;2023-06-01T06:38:09;9.00;;;4.10;;
40170;SDS011;37650;52.790;18.268;2023-06-01T06:41:31;9.00;;;4.00;;
40170;SDS011;37650;52.790;18.268;2023-06-01T06:44:51;12.60;;;4.30;;
40170;SDS011;37650;52.790;18.268;2023-06-01T06:48:12;17.10;;;4.30;;
40170;SDS011;37650;52.790;18.268;2023-06-01T06:51:33;12.90;;;4.00;;
40170;SDS011;37650;52.790;18.268;2023-06-01T06:54:54;11.70;;;3.40;;
40170;SDS011;37650;52.790;18.268;2023-06-01T06:58:15;11.60;;;3.50;;
40170;SDS011;37650;52.790;18.268;2023-06-01T07:01:36;12.30;;;4.10;;
40170;SDS011;37650;52.790;18.268;2023-06-01T07:04:57;7.70;;;3.20;;
40170;SDS011;37650;52.790;18.268;2023-06-01T07:08:18;7.50;;;3.40;;
40170;SDS011;37650;52.790;18.268;2023-06-01T07:15:04;7.40;;;3.40;;
40170;SDS011;37650;52.790;18.268;2023-06-01T07:18:25;9.70;;;3.50;;
40170;SDS011;37650;52.790;18.268;2023-06-01T07:21:46;5.00;;;2.90;;
40170;SDS011;37650;52.790;18.268;2023-06-01T07:25:06;8.40;;;3.00;;
40170;SDS011;37650;52.790;18.268;2023-06-01T07:28:29;8.50;;;3.80;;
40170;SDS011;37650;52.790;18.268;2023-06-01T07:31:52;10.20;;;3.20;;
40170;SDS011;37650;52.790;18.268;2023-06-01T07:35:13;8.50;;;3.20;;
40170;SDS011;37650;52.790;18.268;2023-06-01T07:38:33;11.10;;;3.40;;
40170;SDS011;37650;52.790;18.268;2023-06-01T07:41:54;12.80;;;3.40;;
40170;SDS011;37650;52.790;18.268;2023-06-01T07:45:16;17.20;;;4.10;;
40170;SDS011;37650;52.790;18.268;2023-06-01T07:48:37;11.00;;;3.20;;
40170;SDS011;37650;52.790;18.268;2023-06-01T07:51:58;8.90;;;3.10;;
40170;SDS011;37650;52.790;18.268;2023-06-01T07:55:20;7.10;;;3.50;;
40170;SDS011;37650;52.790;18.268;2023-06-01T07:58:41;8.10;;;3.00;;
40170;SDS011;37650;52.790;18.268;2023-06-01T08:02:04;10.00;;;3.00;;
40170;SDS011;37650;52.790;18.268;2023-06-01T08:05:24;12.80;;;3.50;;
40170;SDS011;37650;52.790;18.268;2023-06-01T08:08:45;12.20;;;3.50;;
40170;SDS011;37650;52.790;18.268;2023-06-01T08:12:06;9.30;;;3.60;;
40170;SDS011;37650;52.790;18.268;2023-06-01T08:15:27;9.40;;;3.60;;
40170;SDS011;37650;52.790;18.268;2023-06-01T08:18:48;10.90;;;3.40;;
40170;SDS011;37650;52.790;18.268;2023-06-01T08:22:08;12.70;;;3.70;;
40170;SDS011;37650;52.790;18.268;2023-06-01T08:25:29;7.80;;;3.50;;
40170;SDS011;37650;52.790;18.268;2023-06-01T08:28:49;7.50;;;3.30;;
40170;SDS011;37650;52.790;18.268;2023-06-01T08:32:13;8.50;;;3.20;;
40170;SDS011;37650;52.790;18.268;2023-06-01T08:35:35;5.70;;;3.20;;
40170;SDS011;37650;52.790;18.268;2023-06-01T08:38:55;6.00;;;3.10;;
40170;SDS011;37650;52.790;18.268;2023-06-01T08:45:46;13.90;;;3.40;;
40170;SDS011;37650;52.790;18.268;2023-06-01T08:49:08;8.10;;;3.00;;
40170;SDS011;37650;52.790;18.268;2023-06-01T08:52:32;10.30;;;3.70;;
40170;SDS011;37650;52.790;18.268;2023-06-01T08:55:55;9.70;;;3.30;;
40170;SDS011;37650;52.790;18.268;2023-06-01T08:59:16;7.80;;;3.30;;
40170;SDS011;37650;52.790;18.268;2023-06-01T09:02:37;8.40;;;3.10;;
40170;SDS011;37650;52.790;18.268;2023-06-01T09:05:58;9.60;;;4.10;;
40170;SDS011;37650;52.790;18.268;2023-06-01T09:09:18;7.10;;;3.60;;
40170;SDS011;37650;52.790;18.268;2023-06-01T09:12:39;9.50;;;3.60;;
40170;SDS011;37650;52.790;18.268;2023-06-01T09:16:11;9.90;;;3.50;;
40170;SDS011;37650;52.790;18.268;2023-06-01T09:19:42;11.80;;;3.60;;
40170;SDS011;37650;52.790;18.268;2023-06-01T09:23:06;8.00;;;3.50;;
40170;SDS011;37650;52.790;18.268;2023-06-01T09:26:29;11.60;;;3.00;;
40170;SDS011;37650;52.790;18.268;2023-06-01T09:29:57;5.80;;;2.80;;
40170;SDS011;37650;52.790;18.268;2023-06-01T09:33:21;12.50;;;3.90;;
40170;SDS011;37650;52.790;18.268;2023-06-01T09:36:51;14.20;;;4.10;;
40170;SDS011;37650;52.790;18.268;2023-06-01T09:40:17;13.30;;;3.90;;
40170;SDS011;37650;52.790;18.268;2023-06-01T09:43:39;8.50;;;3.80;;
40170;SDS011;37650;52.790;18.268;2023-06-01T09:47:05;11.90;;;3.10;;
40170;SDS011;37650;52.790;18.268;2023-06-01T09:50:36;7.80;;;2.90;;
40170;SDS011;37650;52.790;18.268;2023-06-01T09:53:58;11.30;;;3.70;;
40170;SDS011;37650;52.790;18.268;2023-06-01T09:57:25;9.10;;;3.10;;
40170;SDS011;37650;52.790;18.268;2023-06-01T10:00:49;8.50;;;2.60;;
40170;SDS011;37650;52.790;18.268;2023-06-01T10:04:10;7.80;;;2.90;;
40170;SDS011;37650;52.790;18.268;2023-06-01T10:07:33;14.80;;;3.40;;
40170;SDS011;37650;52.790;18.268;2023-06-01T10:10:57;8.10;;;3.20;;
40170;SDS011;37650;52.790;18.268;2023-06-01T10:14:17;11.10;;;3.50;;
40170;SDS011;37650;52.790;18.268;2023-06-01T10:17:38;8.50;;;2.60;;
40170;SDS011;37650;52.790;18.268;2023-06-01T10:21:02;9.30;;;2.90;;
40170;SDS011;37650;52.790;18.268;2023-06-01T10:24:29;7.50;;;3.10;;
40170;SDS011;37650;52.790;18.268;2023-06-01T10:27:55;17.60;;;3.30;;
40170;SDS011;37650;52.790;18.268;2023-06-01T10:34:57;19.00;;;3.40;;
40170;SDS011;37650;52.790;18.268;2023-06-01T10:41:40;10.80;;;3.50;;
40170;SDS011;37650;52.790;18.268;2023-06-01T10:45:00;6.50;;;2.80;;
40170;SDS011;37650;52.790;18.268;2023-06-01T10:48:20;9.10;;;2.70;;
40170;SDS011;37650;52.790;18.268;2023-06-01T10:52:26;9.50;;;2.90;;
40170;SDS011;37650;52.790;18.268;2023-06-01T11:03:47;7.70;;;2.50;;
40170;SDS011;37650;52.790;18.268;2023-06-01T11:10:59;10.40;;;3.20;;
40170;SDS011;37650;52.790;18.268;2023-06-01T11:14:23;9.40;;;3.10;;
40170;SDS011;37650;52.790;18.268;2023-06-01T11:17:49;10.50;;;3.70;;
40170;SDS011;37650;52.790;18.268;2023-06-01T11:21:14;9.60;;;2.90;;
40170;SDS011;37650;52.790;18.268;2023-06-01T11:24:38;7.10;;;2.70;;
40170;SDS011;37650;52.790;18.268;2023-06-01T11:28:08;12.70;;;3.20;;
40170;SDS011;37650;52.790;18.268;2023-06-01T11:31:30;13.10;;;3.00;;
40170;SDS011;37650;52.790;18.268;2023-06-01T11:34:55;13.40;;;3.10;;
40170;SDS011;37650;52.790;18.268;2023-06-01T11:38:16;12.20;;;3.80;;
40170;SDS011;37650;52.790;18.268;2023-06-01T11:41:36;9.90;;;3.40;;
40170;SDS011;37650;52.790;18.268;2023-06-01T11:44:57;11.50;;;3.40;;
40170;SDS011;37650;52.790;18.268;2023-06-01T11:48:18;6.80;;;2.90;;
40170;SDS011;37650;52.790;18.268;2023-06-01T11:51:38;9.70;;;3.40;;
40170;SDS011;37650;52.790;18.268;2023-06-01T11:55:04;8.60;;;3.10;;
40170;SDS011;37650;52.790;18.268;2023-06-01T12:01:46;16.60;;;3.30;;
40170;SDS011;37650;52.790;18.268;2023-06-01T12:05:07;8.80;;;3.70;;
40170;SDS011;37650;52.790;18.268;2023-06-01T12:08:28;7.20;;;2.60;;
40170;SDS011;37650;52.790;18.268;2023-06-01T12:11:51;11.50;;;2.90;;
40170;SDS011;37650;52.790;18.268;2023-06-01T12:15:15;9.20;;;3.40;;
40170;SDS011;37650;52.790;18.268;2023-06-01T12:18:37;8.50;;;2.70;;
40170;SDS011;37650;52.790;18.268;2023-06-01T12:21:58;7.90;;;2.80;;
40170;SDS011;37650;52.790;18.268;2023-06-01T12:25:19;7.80;;;2.40;;
40170;SDS011;37650;52.790;18.268;2023-06-01T12:28:49;5.00;;;2.10;;
40170;SDS011;37650;52.790;18.268;2023-06-01T12:32:15;9.00;;;2.80;;
40170;SDS011;37650;52.790;18.268;2023-06-01T12:35:47;6.70;;;2.70;;
40170;SDS011;37650;52.790;18.268;2023-06-01T12:39:10;7.10;;;2.70;;
40170;SDS011;37650;52.790;18.268;2023-06-01T12:42:37;7.50;;;2.60;;
40170;SDS011;37650;52.790;18.268;2023-06-01T12:45:59;8.30;;;3.20;;
40170;SDS011;37650;52.790;18.268;2023-06-01T12:49:21;10.40;;;2.80;;
40170;SDS011;37650;52.790;18.268;2023-06-01T12:52:42;7.00;;;2.80;;
40170;SDS011;37650;52.790;18.268;2023-06-01T12:56:02;9.40;;;3.10;;
40170;SDS011;37650;52.790;18.268;2023-06-01T12:59:23;7.30;;;2.70;;
40170;SDS011;37650;52.790;18.268;2023-06-01T13:02:44;6.60;;;3.10;;
40170;SDS011;37650;52.790;18.268;2023-06-01T13:06:07;7.90;;;2.80;;
40170;SDS011;37650;52.790;18.268;2023-06-01T13:09:28;12.80;;;2.60;;
40170;SDS011;37650;52.790;18.268;2023-06-01T13:12:49;7.20;;;2.80;;
40170;SDS011;37650;52.790;18.268;2023-06-01T13:16:09;10.40;;;3.40;;
40170;SDS011;37650;52.790;18.268;2023-06-01T13:19:30;7.30;;;3.20;;
40170;SDS011;37650;52.790;18.268;2023-06-01T13:22:50;8.80;;;2.90;;
40170;SDS011;37650;52.790;18.268;2023-06-01T13:26:12;5.80;;;2.70;;
40170;SDS011;37650;52.790;18.268;2023-06-01T13:29:34;8.00;;;2.80;;
40170;SDS011;37650;52.790;18.268;2023-06-01T13:32:57;13.20;;;3.00;;
40170;SDS011;37650;52.790;18.268;2023-06-01T13:36:17;8.40;;;2.80;;
40170;SDS011;37650;52.790;18.268;2023-06-01T13:39:37;9.40;;;2.70;;
40170;SDS011;37650;52.790;18.268;2023-06-01T13:42:57;10.60;;;3.20;;
40170;SDS011;37650;52.790;18.268;2023-06-01T13:46:18;12.40;;;2.90;;
40170;SDS011;37650;52.790;18.268;2023-06-01T13:50:09;9.50;;;2.80;;
40170;SDS011;37650;52.790;18.268;2023-06-01T13:53:30;6.40;;;3.20;;
40170;SDS011;37650;52.790;18.268;2023-06-01T13:56:55;11.70;;;2.90;;
40170;SDS011;37650;52.790;18.268;2023-06-01T14:00:18;9.60;;;2.50;;
40170;SDS011;37650;52.790;18.268;2023-06-01T14:03:39;7.40;;;2.30;;
40170;SDS011;37650;52.790;18.268;2023-06-01T14:07:00;11.10;;;2.80;;
40170;SDS011;37650;52.790;18.268;2023-06-01T14:10:20;7.90;;;2.60;;
40170;SDS011;37650;52.790;18.268;2023-06-01T14:13:41;9.60;;;2.80;;
40170;SDS011;37650;52.790;18.268;2023-06-01T14:17:05;9.80;;;2.50;;
40170;SDS011;37650;52.790;18.268;2023-06-01T14:23:47;11.40;;;2.90;;
40170;SDS011;37650;52.790;18.268;2023-06-01T14:27:07;9.60;;;2.70;;
40170;SDS011;37650;52.790;18.268;2023-06-01T14:30:28;11.60;;;2.70;;
40170;SDS011;37650;52.790;18.268;2023-06-01T14:33:48;8.00;;;2.50;;
40170;SDS011;37650;52.790;18.268;2023-06-01T14:42:09;7.30;;;2.50;;
40170;SDS011;37650;52.790;18.268;2023-06-01T14:45:30;6.60;;;2.90;;
40170;SDS011;37650;52.790;18.268;2023-06-01T14:48:51;6.60;;;2.60;;
40170;SDS011;37650;52.790;18.268;2023-06-01T14:52:11;6.00;;;2.30;;
40170;SDS011;37650;52.790;18.268;2023-06-01T14:55:35;8.40;;;2.50;;
40170;SDS011;37650;52.790;18.268;2023-06-01T14:59:28;6.90;;;3.10;;
40170;SDS011;37650;52.790;18.268;2023-06-01T15:02:48;9.10;;;2.70;;
40170;SDS011;37650;52.790;18.268;2023-06-01T15:06:15;15.20;;;2.50;;
40170;SDS011;37650;52.790;18.268;2023-06-01T15:10:01;7.60;;;3.10;;
40170;SDS011;37650;52.790;18.268;2023-06-01T15:13:21;8.40;;;2.40;;
40170;SDS011;37650;52.790;18.268;2023-06-01T15:16:42;7.70;;;2.70;;
40170;SDS011;37650;52.790;18.268;2023-06-01T15:20:03;5.90;;;3.10;;
40170;SDS011;37650;52.790;18.268;2023-06-01T15:23:25;7.50;;;2.60;;
40170;SDS011;37650;52.790;18.268;2023-06-01T15:26:56;7.40;;;3.20;;
40170;SDS011;37650;52.790;18.268;2023-06-01T15:30:19;10.60;;;3.20;;
40170;SDS011;37650;52.790;18.268;2023-06-01T15:37:01;8.80;;;2.90;;
40170;SDS011;37650;52.790;18.268;2023-06-01T15:40:22;9.00;;;3.00;;
40170;SDS011;37650;52.790;18.268;2023-06-01T15:43:53;7.10;;;3.00;;
40170;SDS011;37650;52.790;18.268;2023-06-01T15:47:43;7.20;;;3.10;;
40170;SDS011;37650;52.790;18.268;2023-06-01T15:51:14;7.40;;;3.10;;
40170;SDS011;37650;52.790;18.268;2023-06-01T15:54:35;7.50;;;2.90;;
40170;SDS011;37650;52.790;18.268;2023-06-01T15:57:55;7.10;;;2.70;;
40170;SDS011;37650;52.790;18.268;2023-06-01T16:01:18;9.60;;;3.20;;
40170;SDS011;37650;52.790;18.268;2023-06-01T16:04:38;8.90;;;3.70;;
40170;SDS011;37650;52.790;18.268;2023-06-01T16:07:59;7.20;;;3.30;;
40170;SDS011;37650;52.790;18.268;2023-06-01T16:11:20;10.50;;;3.00;;
40170;SDS011;37650;52.790;18.268;2023-06-01T16:14:40;11.20;;;3.20;;
40170;SDS011;37650;52.790;18.268;2023-06-01T16:18:00;9.50;;;3.20;;
40170;SDS011;37650;52.790;18.268;2023-06-01T16:21:21;7.20;;;3.60;;
40170;SDS011;37650;52.790;18.268;2023-06-01T16:24:42;8.50;;;3.10;;
40170;SDS011;37650;52.790;18.268;2023-06-01T16:28:02;10.20;;;3.40;;
40170;SDS011;37650;52.790;18.268;2023-06-01T16:31:23;10.50;;;3.40;;
40170;SDS011;37650;52.790;18.268;2023-06-01T16:34:43;10.50;;;3.70;;
40170;SDS011;37650;52.790;18.268;2023-06-01T16:38:04;10.00;;;3.10;;
40170;SDS011;37650;52.790;18.268;2023-06-01T16:41:24;8.20;;;3.40;;
40170;SDS011;37650;52.790;18.268;2023-06-01T16:44:44;7.70;;;3.00;;
40170;SDS011;37650;52.790;18.268;2023-06-01T16:48:05;9.80;;;2.70;;
40170;SDS011;37650;52.790;18.268;2023-06-01T16:51:27;8.90;;;3.10;;
40170;SDS011;37650;52.790;18.268;2023-06-01T16:54:47;4.80;;;2.90;;
40170;SDS011;37650;52.790;18.268;2023-06-01T16:58:10;7.30;;;3.00;;
40170;SDS011;37650;52.790;18.268;2023-06-01T17:01:30;8.20;;;3.50;;
40170;SDS011;37650;52.790;18.268;2023-06-01T17:04:53;7.30;;;3.20;;
40170;SDS011;37650;52.790;18.268;2023-06-01T17:08:13;8.90;;;3.10;;
40170;SDS011;37650;52.790;18.268;2023-06-01T17:11:34;10.30;;;3.40;;
40170;SDS011;37650;52.790;18.268;2023-06-01T17:14:55;7.90;;;2.90;;
40170;SDS011;37650;52.790;18.268;2023-06-01T17:18:15;9.80;;;4.10;;
40170;SDS011;37650;52.790;18.268;2023-06-01T17:21:36;11.20;;;3.70;;
40170;SDS011;37650;52.790;18.268;2023-06-01T17:24:56;8.20;;;3.00;;
40170;SDS011;37650;52.790;18.268;2023-06-01T17:28:17;8.00;;;3.10;;
40170;SDS011;37650;52.790;18.268;2023-06-01T17:31:37;8.30;;;2.70;;
40170;SDS011;37650;52.790;18.268;2023-06-01T17:34:58;12.00;;;3.10;;
40170;SDS011;37650;52.790;18.268;2023-06-01T17:38:18;8.30;;;3.50;;
40170;SDS011;37650;52.790;18.268;2023-06-01T17:41:42;8.10;;;3.40;;
40170;SDS011;37650;52.790;18.268;2023-06-01T17:45:11;6.90;;;2.90;;
40170;SDS011;37650;52.790;18.268;2023-06-01T17:51:53;6.10;;;2.80;;
40170;SDS011;37650;52.790;18.268;2023-06-01T17:55:13;7.40;;;2.90;;
40170;SDS011;37650;52.790;18.268;2023-06-01T17:58:34;5.10;;;2.70;;
40170;SDS011;37650;52.790;18.268;2023-06-01T18:01:54;7.00;;;2.80;;
40170;SDS011;37650;52.790;18.268;2023-06-01T18:05:15;9.00;;;3.30;;
40170;SDS011;37650;52.790;18.268;2023-06-01T18:08:35;8.00;;;3.20;;
40170;SDS011;37650;52.790;18.268;2023-06-01T18:11:56;5.50;;;2.60;;
40170;SDS011;37650;52.790;18.268;2023-06-01T18:15:21;9.00;;;3.10;;
40170;SDS011;37650;52.790;18.268;2023-06-01T18:19:08;5.90;;;2.70;;
40170;SDS011;37650;52.790;18.268;2023-06-01T18:22:29;6.40;;;2.80;;
40170;SDS011;37650;52.790;18.268;2023-06-01T18:25:49;7.10;;;2.40;;
40170;SDS011;37650;52.790;18.268;2023-06-01T18:29:09;8.10;;;2.80;;
40170;SDS011;37650;52.790;18.268;2023-06-01T18:32:30;7.30;;;2.90;;
40170;SDS011;37650;52.790;18.268;2023-06-01T18:35:50;8.20;;;2.90;;
40170;SDS011;37650;52.790;18.268;2023-06-01T18:39:11;6.40;;;3.10;;
40170;SDS011;37650;52.790;18.268;2023-06-01T18:42:33;7.10;;;3.10;;
40170;SDS011;37650;52.790;18.268;2023-06-01T18:45:54;9.80;;;3.40;;
40170;SDS011;37650;52.790;18.268;2023-06-01T18:52:39;7.00;;;3.60;;
40170;SDS011;37650;52.790;18.268;2023-06-01T18:56:02;10.50;;;3.60;;
40170;SDS011;37650;52.790;18.268;2023-06-01T18:59:22;7.50;;;3.20;;
40170;SDS011;37650;52.790;18.268;2023-06-01T19:02:46;7.70;;;3.50;;
40170;SDS011;37650;52.790;18.268;2023-06-01T19:06:08;8.30;;;3.10;;
40170;SDS011;37650;52.790;18.268;2023-06-01T19:09:29;7.90;;;3.80;;
40170;SDS011;37650;52.790;18.268;2023-06-01T19:12:50;9.20;;;3.20;;
40170;SDS011;37650;52.790;18.268;2023-06-01T19:16:17;9.70;;;3.80;;
40170;SDS011;37650;52.790;18.268;2023-06-01T19:19:44;8.40;;;3.60;;
40170;SDS011;37650;52.790;18.268;2023-06-01T19:23:08;11.20;;;3.80;;
40170;SDS011;37650;52.790;18.268;2023-06-01T19:26:33;13.20;;;3.50;;
40170;SDS011;37650;52.790;18.268;2023-06-01T19:29:54;6.90;;;2.90;;
40170;SDS011;37650;52.790;18.268;2023-06-01T19:33:17;7.50;;;2.90;;
40170;SDS011;37650;52.790;18.268;2023-06-01T19:40:02;10.50;;;3.80;;
40170;SDS011;37650;52.790;18.268;2023-06-01T19:46:57;8.80;;;4.10;;
40170;SDS011;37650;52.790;18.268;2023-06-01T19:53:50;10.80;;;4.40;;
40170;SDS011;37650;52.790;18.268;2023-06-01T19:57:11;7.90;;;3.60;;
40170;SDS011;37650;52.790;18.268;2023-06-01T20:00:31;9.50;;;3.90;;
40170;SDS011;37650;52.790;18.268;2023-06-01T20:03:52;8.40;;;3.10;;
40170;SDS011;37650;52.790;18.268;2023-06-01T20:07:12;10.10;;;3.60;;
40170;SDS011;37650;52.790;18.268;2023-06-01T20:10:36;7.90;;;3.60;;
40170;SDS011;37650;52.790;18.268;2023-06-01T20:13:57;9.60;;;3.40;;
40170;SDS011;37650;52.790;18.268;2023-06-01T20:17:18;7.30;;;3.60;;
40170;SDS011;37650;52.790;18.268;2023-06-01T20:20:39;11.30;;;4.20;;
40170;SDS011;37650;52.790;18.268;2023-06-01T20:24:01;9.50;;;4.00;;
40170;SDS011;37650;52.790;18.268;2023-06-01T20:27:25;7.40;;;3.80;;
40170;SDS011;37650;52.790;18.268;2023-06-01T20:31:01;9.00;;;3.70;;
40170;SDS011;37650;52.790;18.268;2023-06-01T20:34:27;9.30;;;3.70;;
40170;SDS011;37650;52.790;18.268;2023-06-01T20:37:49;8.50;;;3.90;;
40170;SDS011;37650;52.790;18.268;2023-06-01T20:41:14;8.50;;;4.00;;
40170;SDS011;37650;52.790;18.268;2023-06-01T20:44:44;9.50;;;3.90;;
40170;SDS011;37650;52.790;18.268;2023-06-01T20:48:05;10.80;;;3.90;;
40170;SDS011;37650;52.790;18.268;2023-06-01T20:54:56;9.80;;;3.70;;
40170;SDS011;37650;52.790;18.268;2023-06-01T20:58:24;7.60;;;3.20;;
40170;SDS011;37650;52.790;18.268;2023-06-01T21:01:46;6.80;;;3.60;;
40170;SDS011;37650;52.790;18.268;2023-06-01T21:05:09;8.60;;;3.10;;
40170;SDS011;37650;52.790;18.268;2023-06-01T21:08:30;10.80;;;3.90;;
40170;SDS011;37650;52.790;18.268;2023-06-01T21:11:51;9.30;;;4.30;;
40170;SDS011;37650;52.790;18.268;2023-06-01T21:15:20;12.40;;;4.30;;
40170;SDS011;37650;52.790;18.268;2023-06-01T21:18:40;9.70;;;3.90;;